Time;durP1;ratioP1;P1;durP2;ratioP2;P2;SDS_P1;SDS_P2;PMS_P1;PMS_P2;Temp;Humidity;BMP_temperature;BMP_pressure;BME280_temperature;BME280_humidity;BME280_pressure;Samples;Min_cycle;Max_cycle;Signal;HPM_P1;HPM_P2
2022/12/10 00:00:07;;;;;;;72.27;34.90;;;3.10;39.90;;;;;;4979255;28;20465;-62
2022/12/10 00:02:34;;;;;;;62.30;29.17;;;3.00;39.70;;;;;;4981784;28;20484;-62
2022/12/10 00:05:01;;;;;;;64.70;30.40;;;3.00;39.80;;;;;;4985337;28;20496;-62
2022/12/10 00:07:28;;;;;;;56.93;28.20;;;3.00;39.80;;;;;;4978580;28;20483;-62
2022/12/10 00:09:54;;;;;;;62.80;31.40;;;3.00;39.80;;;;;;4981532;28;22326;-61
2022/12/10 00:12:23;;;;;;;56.83;28.20;;;3.00;39.80;;;;;;4982555;28;21052;-62
2022/12/10 00:14:49;;;;;;;56.50;29.07;;;3.00;39.80;;;;;;4980800;28;20468;-62
2022/12/10 00:17:16;;;;;;;55.70;27.77;;;3.00;39.80;;;;;;4980797;28;20473;-62
2022/12/10 00:19:43;;;;;;;61.40;29.73;;;3.00;39.80;;;;;;4982270;28;20464;-62
2022/12/10 00:22:09;;;;;;;58.17;30.10;;;3.00;39.80;;;;;;4984258;28;20461;-62
2022/12/10 00:24:36;;;;;;;56.03;29.80;;;3.00;39.70;;;;;;4979417;28;20457;-62
2022/12/10 00:27:03;;;;;;;58.10;28.97;;;3.00;39.80;;;;;;4983728;28;20495;-62
2022/12/10 00:29:31;;;;;;;57.60;27.90;;;3.00;39.70;;;;;;4985876;28;20488;-62
2022/12/10 00:31:58;;;;;;;56.07;26.73;;;3.00;39.70;;;;;;4976196;28;20527;-63
2022/12/10 00:34:25;;;;;;;50.17;25.93;;;3.00;39.70;;;;;;4980371;28;20463;-62
2022/12/10 00:36:51;;;;;;;47.43;23.50;;;3.00;39.70;;;;;;4984421;28;20511;-62
2022/12/10 00:39:20;;;;;;;53.87;26.47;;;3.00;39.70;;;;;;4980589;28;20592;-62
2022/12/10 00:41:47;;;;;;;45.87;26.47;;;3.00;39.70;;;;;;4975861;28;20861;-63
2022/12/10 00:44:15;;;;;;;51.80;26.07;;;2.90;39.70;;;;;;4983290;28;20468;-62
2022/12/10 00:46:43;;;;;;;58.13;27.90;;;2.90;39.60;;;;;;4980299;28;20483;-62
2022/12/10 00:49:11;;;;;;;48.20;25.53;;;2.90;39.70;;;;;;4985744;28;21159;-62
2022/12/10 00:51:37;;;;;;;58.90;28.83;;;2.90;39.70;;;;;;4978407;28;20461;-62
2022/12/10 00:54:04;;;;;;;56.60;27.73;;;2.90;39.70;;;;;;4983005;28;20457;-63
2022/12/10 00:56:33;;;;;;;58.00;27.23;;;2.90;39.70;;;;;;4984036;28;20476;-62
2022/12/10 00:59:01;;;;;;;57.30;28.40;;;2.90;39.80;;;;;;4983017;28;20468;-62
2022/12/10 01:01:31;;;;;;;57.37;27.80;;;2.80;39.70;;;;;;4978001;28;20472;-63
2022/12/10 01:04:02;;;;;;;57.63;27.77;;;2.80;39.80;;;;;;4983556;28;20493;-62
2022/12/10 01:06:31;;;;;;;60.10;28.13;;;2.80;39.80;;;;;;4980845;28;20484;-62
2022/12/10 01:09:00;;;;;;;55.40;25.60;;;2.80;39.90;;;;;;4979988;28;20453;-62
2022/12/10 01:11:29;;;;;;;50.73;25.50;;;2.80;39.90;;;;;;4980300;28;20467;-62
2022/12/10 01:13:56;;;;;;;53.10;26.93;;;2.80;40.00;;;;;;4982969;28;20472;-63
2022/12/10 01:16:24;;;;;;;60.43;30.03;;;2.80;40.00;;;;;;4978395;28;20461;-62
2022/12/10 01:18:53;;;;;;;54.43;25.20;;;2.70;40.70;;;;;;4985144;28;21123;-62
2022/12/10 01:21:21;;;;;;;63.73;30.30;;;2.70;40.10;;;;;;4983786;28;20562;-62
2022/12/10 01:23:50;;;;;;;60.63;30.80;;;2.80;40.10;;;;;;4982774;28;20457;-62
2022/12/10 01:26:19;;;;;;;64.20;28.50;;;2.80;40.10;;;;;;4983687;28;20503;-62
2022/12/10 01:28:46;;;;;;;50.30;26.77;;;2.80;40.10;;;;;;4976562;28;20484;-62
2022/12/10 01:31:14;;;;;;;58.80;26.83;;;2.80;40.10;;;;;;4983273;28;20487;-62
2022/12/10 01:33:42;;;;;;;46.17;25.40;;;2.80;40.10;;;;;;4984031;28;20469;-62
2022/12/10 01:36:12;;;;;;;51.37;27.57;;;2.80;40.10;;;;;;4983888;28;20469;-62
2022/12/10 01:38:40;;;;;;;56.80;29.43;;;2.80;40.10;;;;;;4980082;28;20461;-62
2022/12/10 01:41:08;;;;;;;58.23;29.00;;;2.90;40.20;;;;;;4977022;28;20464;-62
2022/12/10 01:43:55;;;;;;;54.53;26.33;;;2.90;40.10;;;;;;4983637;28;20465;-62
2022/12/10 01:46:23;;;;;;;49.97;25.33;;;2.90;40.10;;;;;;4978916;28;20476;-62
2022/12/10 01:48:51;;;;;;;53.50;26.40;;;2.90;40.00;;;;;;4990868;28;20531;-62
2022/12/10 01:51:18;;;;;;;52.43;28.13;;;2.90;40.00;;;;;;4982993;28;20465;-62
2022/12/10 01:53:47;;;;;;;57.23;26.87;;;2.90;39.90;;;;;;4982480;28;20472;-62
2022/12/10 01:56:16;;;;;;;53.67;27.07;;;2.90;40.00;;;;;;4984407;28;20847;-62
2022/12/10 01:58:43;;;;;;;54.50;29.37;;;2.90;40.00;;;;;;4985170;28;20531;-62
2022/12/10 02:01:15;;;;;;;53.37;27.20;;;2.90;40.10;;;;;;4986122;28;20492;-62
2022/12/10 02:03:53;;;;;;;46.67;25.20;;;2.90;40.00;;;;;;4987275;28;20465;-62
2022/12/10 02:06:29;;;;;;;49.90;28.33;;;2.90;40.00;;;;;;4983133;28;20500;-62
2022/12/10 02:09:06;;;;;;;55.97;27.20;;;2.90;40.00;;;;;;4989001;28;21040;-62
2022/12/10 02:11:41;;;;;;;55.00;28.43;;;2.90;39.90;;;;;;4981777;28;21003;-62
2022/12/10 02:14:15;;;;;;;48.50;26.40;;;2.90;39.90;;;;;;4982466;28;20482;-62
2022/12/10 02:16:48;;;;;;;54.77;27.10;;;2.90;39.90;;;;;;4981756;28;20488;-62
2022/12/10 02:19:20;;;;;;;49.03;27.17;;;2.90;39.90;;;;;;4981712;28;20463;-62
2022/12/10 02:21:50;;;;;;;52.17;27.87;;;2.90;39.90;;;;;;4985530;28;20473;-62
2022/12/10 02:24:22;;;;;;;54.80;27.80;;;2.90;39.90;;;;;;4980659;28;20846;-62
2022/12/10 02:26:56;;;;;;;53.40;26.57;;;2.90;39.90;;;;;;4984801;28;20480;-62
2022/12/10 02:29:26;;;;;;;54.00;27.53;;;2.90;39.90;;;;;;4983714;28;20460;-62
2022/12/10 02:31:56;;;;;;;53.77;27.13;;;2.90;39.90;;;;;;4987208;28;20487;-62
2022/12/10 02:34:25;;;;;;;51.70;25.30;;;2.90;39.80;;;;;;4984455;28;20464;-62
2022/12/10 02:36:55;;;;;;;53.20;27.30;;;2.90;40.40;;;;;;4985947;28;20496;-62
2022/12/10 02:39:26;;;;;;;47.77;27.00;;;2.90;39.80;;;;;;4983964;28;20460;-62
2022/12/10 02:41:54;;;;;;;49.63;26.40;;;2.90;39.70;;;;;;4982486;28;20460;-62
2022/12/10 02:44:24;;;;;;;52.93;27.03;;;2.90;39.70;;;;;;4980865;28;20468;-62
2022/12/10 02:46:55;;;;;;;47.80;25.47;;;2.90;39.70;;;;;;4980849;28;20507;-62
2022/12/10 02:49:24;;;;;;;46.20;24.30;;;2.90;39.80;;;;;;4980383;28;20495;-62
2022/12/10 02:51:51;;;;;;;51.43;25.30;;;2.90;39.70;;;;;;4983784;28;20457;-62
2022/12/10 02:54:42;;;;;;;51.07;26.20;;;2.90;39.70;;;;;;4983524;28;20465;-63
2022/12/10 02:57:28;;;;;;;51.77;26.50;;;2.90;39.90;;;;;;4982986;28;20641;-62
2022/12/10 03:00:12;;;;;;;46.37;25.43;;;2.90;39.70;;;;;;4970643;28;22126;-62
2022/12/10 03:03:03;;;;;;;43.23;25.03;;;2.90;39.70;;;;;;4974140;28;20508;-62
2022/12/10 03:05:37;;;;;;;47.70;25.33;;;2.90;39.70;;;;;;4979808;28;20478;-62
2022/12/10 03:08:10;;;;;;;39.60;24.60;;;2.90;39.70;;;;;;4981726;28;20850;-62
2022/12/10 03:10:43;;;;;;;35.67;22.07;;;2.90;39.70;;;;;;4981426;28;20899;-62
2022/12/10 03:13:15;;;;;;;41.17;24.10;;;2.90;39.70;;;;;;4982963;28;20457;-62
2022/12/10 03:15:43;;;;;;;36.87;22.67;;;2.90;39.60;;;;;;4985058;28;20548;-62
2022/12/10 03:18:14;;;;;;;36.07;21.13;;;2.90;39.50;;;;;;4984516;28;20561;-62
2022/12/10 03:20:45;;;;;;;37.47;23.77;;;2.90;39.60;;;;;;4983178;28;20471;-62
2022/12/10 03:23:17;;;;;;;36.60;23.10;;;2.90;39.70;;;;;;4979256;28;20465;-62
2022/12/10 03:25:47;;;;;;;36.63;20.57;;;2.80;39.50;;;;;;4983824;28;20462;-62
2022/12/10 03:28:15;;;;;;;35.40;21.27;;;2.90;39.40;;;;;;4978100;28;20493;-62
2022/12/10 03:30:43;;;;;;;37.50;21.47;;;2.80;39.40;;;;;;4981426;28;20491;-62
2022/12/10 03:33:13;;;;;;;39.10;23.50;;;2.80;39.40;;;;;;4970321;28;21263;-63
2022/12/10 03:35:40;;;;;;;34.97;23.90;;;2.80;39.40;;;;;;4975574;28;20479;-62
2022/12/10 03:38:08;;;;;;;35.10;22.57;;;2.80;39.30;;;;;;4976999;28;20488;-62
2022/12/10 03:40:35;;;;;;;37.73;21.30;;;2.90;39.30;;;;;;4978586;28;20943;-62
2022/12/10 03:43:02;;;;;;;35.53;22.30;;;2.80;39.30;;;;;;4981020;28;20988;-62
2022/12/10 03:45:29;;;;;;;35.17;20.80;;;2.80;39.40;;;;;;4980973;28;20859;-62
2022/12/10 03:47:55;;;;;;;35.33;21.97;;;2.80;39.40;;;;;;4980256;28;20573;-62
2022/12/10 03:50:23;;;;;;;36.97;21.50;;;2.80;39.40;;;;;;4985502;28;20988;-62
2022/12/10 03:52:50;;;;;;;31.27;20.80;;;2.80;39.40;;;;;;4983492;28;20476;-62
2022/12/10 03:55:17;;;;;;;37.07;22.23;;;2.80;39.40;;;;;;4985484;28;20465;-62
2022/12/10 03:57:44;;;;;;;38.47;23.00;;;2.80;39.40;;;;;;4984478;28;20507;-62
2022/12/10 04:00:12;;;;;;;38.03;21.73;;;2.80;39.40;;;;;;4983779;28;20460;-62
2022/12/10 04:02:39;;;;;;;39.20;23.67;;;2.80;39.30;;;;;;4979442;28;20491;-62
2022/12/10 04:05:07;;;;;;;37.30;21.57;;;2.80;39.30;;;;;;4980584;28;20512;-62
2022/12/10 04:07:36;;;;;;;41.60;24.97;;;2.80;39.30;;;;;;4983655;28;20483;-62
2022/12/10 04:10:03;;;;;;;38.93;23.33;;;2.80;39.40;;;;;;4982259;28;21152;-62
2022/12/10 04:12:30;;;;;;;40.80;23.23;;;2.80;39.40;;;;;;4975791;28;20461;-62
2022/12/10 04:17:41;;;;;;;40.03;23.37;;;2.80;39.40;;;;;;4984498;28;21032;-62
2022/12/10 04:26:51;;;;;;;36.43;22.73;;;2.80;39.30;;;;;;4984180;28;20997;-62
2022/12/10 04:28:26;;;;;;;36.37;21.73;;;2.70;39.20;;;;;;4980096;28;20492;-70
2022/12/10 04:30:53;;;;;;;45.17;23.90;;;2.60;39.20;;;;;;4985560;28;22789;-71
2022/12/10 04:33:20;;;;;;;38.03;24.13;;;2.60;39.40;;;;;;4983107;28;20472;-63
2022/12/10 04:35:46;;;;;;;37.87;22.53;;;2.60;39.50;;;;;;4981310;28;20460;-63
2022/12/10 04:38:14;;;;;;;35.83;21.87;;;2.60;39.60;;;;;;4981110;28;20605;-63
2022/12/10 04:40:41;;;;;;;39.33;22.93;;;2.50;39.60;;;;;;4979926;28;20462;-63
2022/12/10 04:43:08;;;;;;;39.03;22.27;;;2.50;39.70;;;;;;4984025;28;20464;-63
2022/12/10 04:45:36;;;;;;;35.70;21.40;;;2.50;40.30;;;;;;4971381;28;20472;-63
2022/12/10 04:48:03;;;;;;;35.73;21.43;;;2.50;39.60;;;;;;4985837;28;20914;-62
2022/12/10 04:50:30;;;;;;;33.97;19.23;;;2.50;39.70;;;;;;4983786;28;21031;-62
2022/12/10 04:52:56;;;;;;;35.53;20.73;;;2.50;39.60;;;;;;4983723;28;20828;-62
2022/12/10 04:55:24;;;;;;;35.67;21.83;;;2.50;39.70;;;;;;4984734;28;20925;-63
2022/12/10 04:57:52;;;;;;;33.90;21.20;;;2.50;39.50;;;;;;4981146;28;20488;-63
2022/12/10 05:00:19;;;;;;;36.40;22.53;;;2.40;39.50;;;;;;4983150;28;20467;-63
2022/12/10 05:02:48;;;;;;;36.33;21.67;;;2.40;39.50;;;;;;4975136;28;20972;-62
2022/12/10 05:05:15;;;;;;;33.17;22.10;;;2.40;39.60;;;;;;4977973;28;20469;-63
2022/12/10 05:07:42;;;;;;;34.40;21.60;;;2.40;39.60;;;;;;4975400;28;20485;-63
2022/12/10 05:10:09;;;;;;;35.00;22.00;;;2.40;39.60;;;;;;4985144;28;20802;-62
2022/12/10 05:12:37;;;;;;;38.20;23.23;;;2.40;39.60;;;;;;4981376;28;20476;-62
2022/12/10 05:15:04;;;;;;;34.37;21.60;;;2.40;39.50;;;;;;4981637;28;20468;-62
2022/12/10 05:17:31;;;;;;;35.07;21.10;;;2.40;39.50;;;;;;4982431;28;20492;-62
2022/12/10 05:19:58;;;;;;;37.57;22.00;;;2.40;39.50;;;;;;4981735;28;20460;-63
2022/12/10 05:25:09;;;;;;;36.70;21.70;;;2.40;39.50;;;;;;4984259;28;20464;-62
2022/12/10 05:27:37;;;;;;;33.57;20.53;;;2.40;39.50;;;;;;4979215;28;20488;-62
2022/12/10 05:30:05;;;;;;;31.10;19.37;;;2.40;39.40;;;;;;4980309;28;20493;-62
2022/12/10 05:32:33;;;;;;;33.40;21.33;;;2.40;39.40;;;;;;4978912;28;20649;-62
2022/12/10 05:35:00;;;;;;;36.63;22.43;;;2.50;39.30;;;;;;4979107;28;21008;-62
2022/12/10 05:37:28;;;;;;;33.97;20.53;;;2.50;39.20;;;;;;4980003;28;21290;-62
2022/12/10 05:39:55;;;;;;;38.83;23.03;;;2.50;39.20;;;;;;4982160;28;20471;-62
2022/12/10 05:42:22;;;;;;;34.97;20.97;;;2.40;39.10;;;;;;4985367;28;20980;-63
2022/12/10 05:44:50;;;;;;;35.03;21.50;;;2.40;39.10;;;;;;4980856;28;20472;-63
2022/12/10 05:47:16;;;;;;;43.50;22.13;;;2.40;39.20;;;;;;4983118;28;20481;-62
2022/12/10 05:49:43;;;;;;;35.87;22.40;;;2.50;39.30;;;;;;4982651;28;20493;-62
2022/12/10 05:52:10;;;;;;;35.60;20.80;;;2.40;39.20;;;;;;4984856;28;20465;-62
2022/12/10 05:54:37;;;;;;;35.47;21.40;;;2.50;39.30;;;;;;4982915;28;20511;-62
2022/12/10 05:57:04;;;;;;;33.93;20.73;;;2.40;39.30;;;;;;4979676;28;20508;-62
2022/12/10 05:59:30;;;;;;;36.53;21.87;;;2.40;39.30;;;;;;4981237;28;20495;-63
2022/12/10 06:01:59;;;;;;;34.20;19.87;;;2.40;39.30;;;;;;4983137;28;20468;-62
2022/12/10 06:04:25;;;;;;;39.90;21.40;;;2.40;39.30;;;;;;4975967;28;20456;-62
2022/12/10 06:06:52;;;;;;;31.33;20.90;;;2.40;39.30;;;;;;4984138;28;20477;-62
2022/12/10 06:09:19;;;;;;;36.60;21.57;;;2.40;39.40;;;;;;4980295;28;20484;-62
2022/12/10 06:11:45;;;;;;;37.47;23.10;;;2.40;39.40;;;;;;4977411;28;20835;-62
2022/12/10 06:14:12;;;;;;;36.33;22.83;;;2.40;39.40;;;;;;4974559;28;20957;-62
2022/12/10 06:16:41;;;;;;;32.23;20.67;;;2.40;39.50;;;;;;4984222;28;20489;-62
2022/12/10 06:19:09;;;;;;;35.97;20.87;;;2.40;39.40;;;;;;4983643;28;20461;-63
2022/12/10 06:21:36;;;;;;;31.50;20.33;;;2.40;39.50;;;;;;4982632;28;20456;-62
2022/12/10 06:24:03;;;;;;;31.53;20.40;;;2.40;39.30;;;;;;4980548;28;20874;-62
2022/12/10 06:26:29;;;;;;;36.63;21.73;;;2.30;39.40;;;;;;4981836;28;20488;-62
2022/12/10 06:28:56;;;;;;;35.67;21.47;;;2.30;39.50;;;;;;4984641;28;20480;-62
2022/12/10 06:31:23;;;;;;;36.10;21.17;;;2.30;39.50;;;;;;4980498;28;20480;-62
2022/12/10 06:33:50;;;;;;;37.70;21.73;;;2.40;39.40;;;;;;4985782;28;20469;-62
2022/12/10 06:36:20;;;;;;;30.87;20.40;;;2.30;39.50;;;;;;4988684;28;20456;-62
2022/12/10 06:38:47;;;;;;;36.37;21.47;;;2.30;39.50;;;;;;4985381;28;20468;-63
2022/12/10 06:41:17;;;;;;;35.50;22.63;;;2.30;39.50;;;;;;4984286;28;20467;-63
2022/12/10 06:43:44;;;;;;;29.23;19.13;;;2.30;39.50;;;;;;4981442;28;20465;-63
2022/12/10 06:46:12;;;;;;;39.23;23.50;;;2.40;39.50;;;;;;4983892;28;20469;-63
2022/12/10 06:48:40;;;;;;;35.17;21.27;;;2.40;39.50;;;;;;4986037;28;20493;-63
2022/12/10 06:51:07;;;;;;;35.57;23.20;;;2.40;39.50;;;;;;4985696;28;20464;-62
2022/12/10 06:53:37;;;;;;;32.10;21.33;;;2.40;39.50;;;;;;4981541;28;20473;-62
2022/12/10 06:56:05;;;;;;;35.83;21.00;;;2.40;39.50;;;;;;4982472;28;20461;-62
2022/12/10 06:58:33;;;;;;;33.93;21.70;;;2.40;39.50;;;;;;4985251;28;21000;-62
2022/12/10 07:01:04;;;;;;;34.70;22.67;;;2.40;39.50;;;;;;4983635;28;20484;-62
2022/12/10 07:03:31;;;;;;;34.73;21.90;;;2.40;39.50;;;;;;4983437;28;20836;-62
2022/12/10 07:05:58;;;;;;;36.67;22.07;;;2.50;39.50;;;;;;4982029;28;20564;-62
2022/12/10 07:08:25;;;;;;;39.40;23.00;;;2.50;39.50;;;;;;4986402;28;20487;-63
2022/12/10 07:10:53;;;;;;;33.20;21.30;;;2.50;39.40;;;;;;4982023;28;20603;-62
2022/12/10 07:13:20;;;;;;;33.83;22.00;;;2.50;39.40;;;;;;4986439;28;20465;-63
2022/12/10 07:15:47;;;;;;;40.13;26.10;;;2.50;39.30;;;;;;4986288;28;20468;-63
2022/12/10 07:18:13;;;;;;;37.47;20.87;;;2.50;39.30;;;;;;4981584;28;20485;-62
2022/12/10 07:20:40;;;;;;;37.13;22.80;;;2.50;39.40;;;;;;4983094;28;21000;-62
2022/12/10 07:23:07;;;;;;;38.27;23.47;;;2.50;39.30;;;;;;4978654;28;20468;-63
2022/12/10 07:25:34;;;;;;;33.43;22.60;;;2.50;39.30;;;;;;4984191;28;20461;-63
2022/12/10 07:28:02;;;;;;;31.33;19.60;;;2.50;39.30;;;;;;4986905;28;20480;-62
2022/12/10 07:30:29;;;;;;;37.07;23.70;;;2.50;39.20;;;;;;4984955;28;20477;-63
2022/12/10 07:32:56;;;;;;;34.13;21.60;;;2.50;39.20;;;;;;4987510;28;20467;-62
2022/12/10 07:35:22;;;;;;;35.63;24.07;;;2.60;39.30;;;;;;4985139;28;20468;-63
2022/12/10 07:37:49;;;;;;;35.80;23.53;;;2.60;39.10;;;;;;4984052;28;20496;-63
2022/12/10 07:40:16;;;;;;;36.93;24.57;;;2.60;39.10;;;;;;4985235;28;20461;-62
2022/12/10 07:42:43;;;;;;;39.00;21.87;;;2.60;39.10;;;;;;4985637;28;20471;-62
2022/12/10 07:45:12;;;;;;;34.53;21.80;;;2.60;39.20;;;;;;4985660;28;20479;-62
2022/12/10 07:47:39;;;;;;;33.63;21.07;;;2.60;39.10;;;;;;4982309;28;20477;-62
2022/12/10 07:50:07;;;;;;;33.00;22.20;;;2.60;39.10;;;;;;4985604;28;20519;-62
2022/12/10 07:52:34;;;;;;;33.83;22.07;;;2.60;39.10;;;;;;4984361;28;20468;-62
2022/12/10 07:55:01;;;;;;;33.80;23.03;;;2.60;39.10;;;;;;4985568;28;20471;-62
2022/12/10 07:57:29;;;;;;;33.60;20.93;;;2.70;39.00;;;;;;4985298;28;20483;-62
2022/12/10 07:59:56;;;;;;;35.47;21.53;;;2.70;39.00;;;;;;4981167;28;20462;-68
2022/12/10 08:02:24;;;;;;;34.17;22.03;;;2.70;39.10;;;;;;4984347;28;20484;-62
2022/12/10 08:04:51;;;;;;;37.13;22.23;;;2.70;39.00;;;;;;4980847;28;20965;-62
2022/12/10 08:07:17;;;;;;;33.77;22.37;;;2.70;39.00;;;;;;4980854;28;22888;-62
2022/12/10 08:09:44;;;;;;;28.80;19.37;;;2.70;38.90;;;;;;4983039;28;20702;-62
2022/12/10 08:12:11;;;;;;;33.53;22.10;;;2.80;38.90;;;;;;4977416;28;20927;-62
2022/12/10 08:14:38;;;;;;;36.33;21.50;;;2.80;38.90;;;;;;4982718;28;20467;-62
2022/12/10 08:17:04;;;;;;;32.73;20.90;;;2.80;38.80;;;;;;4978339;28;20484;-63
2022/12/10 08:19:33;;;;;;;37.30;22.40;;;2.80;38.80;;;;;;4980742;28;21208;-62
2022/12/10 08:21:59;;;;;;;38.90;23.40;;;2.80;38.90;;;;;;4980233;28;20488;-63
2022/12/10 08:24:26;;;;;;;32.70;20.77;;;2.90;38.80;;;;;;4981988;28;20457;-62
2022/12/10 08:26:53;;;;;;;40.43;22.23;;;2.90;38.80;;;;;;4977138;28;20493;-62
2022/12/10 08:29:20;;;;;;;40.87;23.77;;;2.90;38.70;;;;;;4982662;28;20485;-62
2022/12/10 08:31:47;;;;;;;31.73;21.57;;;3.00;38.70;;;;;;4983969;28;20581;-62
2022/12/10 08:34:15;;;;;;;38.20;21.90;;;3.10;38.70;;;;;;4979539;28;20464;-62
2022/12/10 08:36:44;;;;;;;32.33;21.17;;;3.20;38.50;;;;;;4977816;28;20496;-62
2022/12/10 08:39:14;;;;;;;38.80;23.43;;;3.20;38.40;;;;;;4983297;28;20457;-62
2022/12/10 08:41:42;;;;;;;38.40;24.37;;;3.30;38.40;;;;;;4984730;28;20473;-62
2022/12/10 08:44:09;;;;;;;38.67;21.97;;;3.40;38.30;;;;;;4980623;28;20466;-62
2022/12/10 08:46:36;;;;;;;36.20;23.43;;;3.40;38.20;;;;;;4984940;28;20484;-62
2022/12/10 08:49:02;;;;;;;33.30;21.10;;;3.50;38.10;;;;;;4978236;28;20468;-62
2022/12/10 08:51:29;;;;;;;35.07;22.93;;;3.50;37.90;;;;;;4977654;28;21116;-62
2022/12/10 08:53:57;;;;;;;38.13;23.47;;;3.60;37.70;;;;;;4982330;28;20461;-62
2022/12/10 08:56:24;;;;;;;35.10;24.30;;;3.60;37.40;;;;;;4980962;28;20472;-62
2022/12/10 08:58:51;;;;;;;38.50;24.20;;;3.60;37.30;;;;;;4981403;28;20457;-62
2022/12/10 09:01:19;;;;;;;39.23;26.37;;;3.70;37.30;;;;;;4983716;28;20491;-62
2022/12/10 09:03:46;;;;;;;42.30;27.47;;;3.70;37.20;;;;;;4980856;28;20457;-62
2022/12/10 09:06:15;;;;;;;38.90;23.80;;;3.70;37.20;;;;;;4981171;28;20457;-62
2022/12/10 09:08:42;;;;;;;38.60;23.50;;;3.70;37.20;;;;;;4981144;28;20468;-62
2022/12/10 09:11:13;;;;;;;38.63;24.33;;;3.70;37.10;;;;;;4981966;28;20503;-61
2022/12/10 09:13:40;;;;;;;38.90;25.40;;;3.70;37.10;;;;;;4985425;28;20468;-61
2022/12/10 09:16:07;;;;;;;42.07;23.60;;;3.70;37.00;;;;;;4979396;28;20461;-62
2022/12/10 09:18:34;;;;;;;36.53;22.87;;;3.70;37.00;;;;;;4982441;28;20495;-62
2022/12/10 09:21:04;;;;;;;33.97;23.93;;;3.70;36.90;;;;;;4981527;28;20456;-62
2022/12/10 09:23:31;;;;;;;40.00;24.00;;;3.70;36.80;;;;;;4980174;28;20469;-62
2022/12/10 09:25:58;;;;;;;34.77;21.73;;;3.70;36.50;;;;;;4976080;28;20461;-61
2022/12/10 09:28:26;;;;;;;36.53;22.37;;;3.80;36.20;;;;;;4982471;28;20477;-61
2022/12/10 09:30:56;;;;;;;37.57;23.80;;;3.80;36.20;;;;;;4981689;28;20477;-62
2022/12/10 09:33:23;;;;;;;38.40;23.50;;;3.80;36.10;;;;;;4981276;28;20473;-62
2022/12/10 09:35:50;;;;;;;36.23;23.17;;;3.80;36.10;;;;;;4977270;28;20473;-62
2022/12/10 09:38:17;;;;;;;32.37;22.00;;;3.80;36.00;;;;;;4977681;28;20917;-62
2022/12/10 09:40:48;;;;;;;32.07;19.17;;;3.90;36.00;;;;;;4978676;28;20460;-62
2022/12/10 09:43:22;;;;;;;35.33;21.27;;;3.90;36.00;;;;;;4982571;28;20476;-62
2022/12/10 09:46:01;;;;;;;36.07;23.83;;;3.90;35.90;;;;;;4979534;28;20461;-61
2022/12/10 09:48:35;;;;;;;38.50;24.07;;;4.00;35.80;;;;;;4980465;28;20506;-62
2022/12/10 09:51:07;;;;;;;34.60;23.10;;;4.10;35.60;;;;;;4978434;28;20496;-62
2022/12/10 09:53:36;;;;;;;37.70;24.20;;;4.10;35.50;;;;;;4978118;28;20480;-62
2022/12/10 09:56:04;;;;;;;39.30;25.20;;;4.10;35.50;;;;;;4983272;28;20457;-62
2022/12/10 09:58:31;;;;;;;35.17;22.67;;;4.20;35.60;;;;;;4979923;28;20592;-62
2022/12/10 10:01:01;;;;;;;34.70;22.40;;;4.30;35.60;;;;;;4976053;28;20470;-62
2022/12/10 10:03:35;;;;;;;38.20;23.87;;;4.30;35.50;;;;;;4981291;28;20838;-61
2022/12/10 10:06:05;;;;;;;39.20;23.70;;;4.30;35.40;;;;;;4980432;28;20457;-62
2022/12/10 10:08:36;;;;;;;33.57;22.57;;;4.40;35.10;;;;;;4982108;28;20480;-62
2022/12/10 10:11:04;;;;;;;37.47;23.30;;;4.40;35.00;;;;;;4983096;28;20584;-61
2022/12/10 10:13:36;;;;;;;35.80;21.10;;;4.40;34.90;;;;;;4984409;28;20551;-61
2022/12/10 10:16:19;;;;;;;33.13;21.23;;;4.30;34.70;;;;;;4977069;28;20472;-62
2022/12/10 10:18:49;;;;;;;31.13;19.30;;;4.30;34.70;;;;;;4980052;28;20872;-62
2022/12/10 10:21:22;;;;;;;29.50;19.67;;;4.30;34.60;;;;;;4974887;28;20456;-62
2022/12/10 10:23:49;;;;;;;31.43;20.20;;;4.30;34.50;;;;;;4983459;28;20464;-62
2022/12/10 10:26:15;;;;;;;30.23;19.67;;;4.40;34.40;;;;;;4980942;28;20465;-62
2022/12/10 10:28:43;;;;;;;30.87;19.50;;;4.40;34.40;;;;;;4986230;28;20465;-62
2022/12/10 10:31:20;;;;;;;31.23;19.77;;;4.50;34.40;;;;;;4980593;28;20465;-62
2022/12/10 10:33:56;;;;;;;30.17;18.97;;;4.50;34.30;;;;;;4986190;28;20453;-62
2022/12/10 10:36:25;;;;;;;31.37;19.00;;;4.40;33.90;;;;;;4986723;28;21034;-62
2022/12/10 10:38:52;;;;;;;28.07;18.70;;;4.40;34.00;;;;;;4988375;28;20944;-62
2022/12/10 10:41:19;;;;;;;29.70;19.30;;;4.50;34.00;;;;;;4985453;28;20461;-62
2022/12/10 10:43:47;;;;;;;30.07;19.30;;;4.50;34.00;;;;;;4983354;28;20468;-62
2022/12/10 10:46:17;;;;;;;27.00;18.00;;;4.50;33.90;;;;;;4989324;28;21032;-62
2022/12/10 10:48:45;;;;;;;30.57;20.87;;;4.50;33.70;;;;;;4982247;28;20456;-62
2022/12/10 10:51:20;;;;;;;29.00;19.13;;;4.50;33.70;;;;;;4984393;28;21143;-62
2022/12/10 10:53:50;;;;;;;33.53;20.60;;;4.50;33.60;;;;;;4984721;28;20515;-62
2022/12/10 10:56:20;;;;;;;30.20;20.23;;;4.50;33.50;;;;;;4988300;28;21163;-62
2022/12/10 10:58:59;;;;;;;28.37;18.27;;;4.50;33.40;;;;;;4990333;28;20543;-64
2022/12/10 11:01:43;;;;;;;129.33;83.13;;;4.50;33.40;;;;;;4986803;28;21176;-71
2022/12/10 11:04:11;;;;;;;29.13;19.07;;;4.50;33.40;;;;;;4986861;28;20456;-63
2022/12/10 11:06:37;;;;;;;23.70;15.33;;;4.50;33.50;;;;;;4986714;28;20492;-62
2022/12/10 11:09:06;;;;;;;28.70;16.93;;;4.50;33.50;;;;;;4987934;28;20460;-62
2022/12/10 11:11:35;;;;;;;26.60;17.40;;;4.50;33.40;;;;;;4984569;28;20484;-62
2022/12/10 11:14:23;;;;;;;29.97;19.03;;;4.50;33.40;;;;;;4988077;28;20460;-62
2022/12/10 11:16:51;;;;;;;27.83;17.57;;;4.50;33.40;;;;;;4981889;28;20719;-62
2022/12/10 11:19:22;;;;;;;31.33;18.30;;;4.50;33.20;;;;;;4985392;28;20960;-64
2022/12/10 11:21:49;;;;;;;29.90;17.87;;;4.50;33.10;;;;;;4984547;28;20887;-62
2022/12/10 11:24:19;;;;;;;29.50;17.70;;;4.40;33.00;;;;;;4981782;28;20468;-62
2022/12/10 11:27:00;;;;;;;24.10;17.27;;;4.50;33.10;;;;;;4980041;28;20588;-63
2022/12/10 11:29:47;;;;;;;27.70;17.73;;;4.50;33.10;;;;;;4987307;28;20464;-63
2022/12/10 11:32:28;;;;;;;27.37;19.30;;;4.50;32.90;;;;;;4983680;28;20480;-63
2022/12/10 11:35:06;;;;;;;29.57;18.97;;;4.50;32.80;;;;;;4986125;28;20476;-63
2022/12/10 11:37:37;;;;;;;28.10;19.33;;;4.50;32.70;;;;;;4978571;28;20500;-62
2022/12/10 11:40:21;;;;;;;32.90;20.43;;;4.50;32.50;;;;;;4985956;28;20457;-63
2022/12/10 11:42:59;;;;;;;27.23;17.27;;;4.50;32.60;;;;;;4982981;28;20460;-63
2022/12/10 11:45:33;;;;;;;25.43;16.00;;;4.50;32.60;;;;;;4981349;28;20469;-62
2022/12/10 11:48:17;;;;;;;25.67;15.47;;;4.50;32.30;;;;;;4985922;28;20480;-62
2022/12/10 11:50:46;;;;;;;25.77;17.10;;;4.40;32.30;;;;;;4988896;28;20476;-63
2022/12/10 11:53:37;;;;;;;26.00;15.17;;;4.30;32.30;;;;;;4987098;28;20461;-63
2022/12/10 11:56:15;;;;;;;23.83;14.27;;;4.30;32.40;;;;;;4984682;28;20464;-63
2022/12/10 11:58:56;;;;;;;21.77;14.07;;;4.30;32.10;;;;;;4984738;28;20465;-62
2022/12/10 12:01:36;;;;;;;23.57;14.00;;;4.30;32.20;;;;;;4982360;28;21454;-62
2022/12/10 12:04:23;;;;;;;21.57;13.00;;;4.20;32.10;;;;;;4986532;28;20549;-63
2022/12/10 12:07:14;;;;;;;22.60;14.97;;;4.20;32.10;;;;;;4981479;28;20512;-64
2022/12/10 12:09:51;;;;;;;118.57;73.70;;;4.20;32.20;;;;;;4977882;28;20861;-66
2022/12/10 12:12:29;;;;;;;21.10;15.33;;;4.10;32.30;;;;;;4984548;28;20817;-62
2022/12/10 12:14:59;;;;;;;20.63;13.00;;;4.10;32.20;;;;;;4979741;28;20469;-62
2022/12/10 12:17:31;;;;;;;23.03;14.30;;;4.10;32.20;;;;;;4981975;28;20499;-63
2022/12/10 12:20:04;;;;;;;24.67;15.93;;;4.10;32.10;;;;;;4987115;28;20464;-63
2022/12/10 12:22:36;;;;;;;23.90;14.67;;;4.10;32.10;;;;;;4985779;28;20456;-62
2022/12/10 12:25:09;;;;;;;21.90;14.60;;;4.00;32.10;;;;;;4981080;28;20571;-63
2022/12/10 12:27:42;;;;;;;21.37;13.67;;;4.00;32.20;;;;;;4981633;28;20563;-62
2022/12/10 12:30:17;;;;;;;22.77;14.03;;;4.00;32.30;;;;;;4980357;28;20481;-64
2022/12/10 12:32:52;;;;;;;22.20;14.37;;;4.00;32.30;;;;;;4983742;28;20542;-69
2022/12/10 12:35:24;;;;;;;22.27;14.33;;;3.90;32.40;;;;;;4977970;28;20470;-64
2022/12/10 12:37:57;;;;;;;21.93;14.37;;;3.90;32.40;;;;;;4981293;28;20502;-61
2022/12/10 12:40:29;;;;;;;23.20;14.83;;;3.90;32.40;;;;;;4981137;28;20457;-61
2022/12/10 12:43:02;;;;;;;24.07;15.00;;;3.90;32.60;;;;;;4984979;28;20465;-63
2022/12/10 12:45:37;;;;;;;24.10;14.73;;;3.90;32.50;;;;;;4982678;28;20476;-62
2022/12/10 12:48:17;;;;;;;22.60;14.13;;;3.80;32.50;;;;;;4975883;28;20492;-61
2022/12/10 12:50:49;;;;;;;23.50;14.13;;;3.80;32.60;;;;;;4982321;28;20512;-64
2022/12/10 12:53:17;;;;;;;28.40;16.80;;;3.80;32.60;;;;;;4978278;28;21021;-62
2022/12/10 12:55:51;;;;;;;25.50;15.93;;;3.80;32.70;;;;;;4979532;28;20475;-62
2022/12/10 12:58:28;;;;;;;20.80;14.10;;;3.70;33.00;;;;;;4979588;28;20530;-63